Latest Weather Observations for Double Island Point

IDQ60801

Issued at 5:42 pm EST Thursday 9 April 2020 (issued every 10 minutes, with the page automatically refreshed every 10 minutes)

About weather observations | Map of weather stations | Latest weather observations for QLD | Other Formats
Station Details ID: 040068 Name: DOUBLE ISLAND POINT LIGHTHOUSE Lat: -25.93 Lon: 153.19 Height: 95.64 m
Data from the previous 72 hours. | See also: Recent months at Double Island Point
Date/Time
EST
Temp
°C
App
Temp
°C
Dew
Point
°C
Rel
Hum
%
Delta-T
°C
Wind Press
QNH
hPa
Press
MSL
hPa
Rain since
9am
mm
Dir  Spd
km/h
Gust
km/h
Spd
kts
Gust
kts
09/05:30pm 23.1 16.9 17.3 70 3.6 SE 46 54 25 29 1020.0 1019.6 0.0
09/05:00pm 23.2 17.0 17.4 70 3.6 SE 46 52 25 28 1019.8 1019.4 0.0
09/04:30pm 23.3 17.8 18.0 72 3.3 SE 44 50 24 27 1019.8 1019.4 0.0
09/04:00pm 23.4 17.3 17.6 70 3.6 SE 46 54 25 29 1019.8 1019.4 0.0
09/03:30pm 23.6 18.0 17.8 70 3.6 SE 44 50 24 27 1019.7 1019.3 0.0
09/03:00pm 23.7 18.3 17.9 70 3.6 SE 43 48 23 26 1019.8 1019.4 0.0
09/02:30pm 23.7 18.3 17.9 70 3.6 SE 43 48 23 26 1019.8 1019.4 0.0
09/02:00pm 24.1 18.7 17.8 68 3.9 SE 43 48 23 26 1019.9 1019.5 0.0
09/01:30pm 24.1 18.5 17.4 66 4.2 SE 43 50 23 27 1020.1 1019.7 0.0
09/01:00pm 24.5 18.7 18.2 68 4.0 SE 46 54 25 29 1020.2 1019.8 0.0
09/12:30pm 24.5 18.6 18.0 67 4.1 SE 46 54 25 29 1020.7 1020.3 0.0
09/12:00pm 24.4 18.1 18.1 68 4.0 SSE 48 54 26 29 1020.9 1020.5 0.0
09/11:30am 24.1 18.2 18.1 69 3.8 SE 46 54 25 29 1021.2 1020.8 0.0
09/11:00am 24.6 18.9 18.5 69 3.9 SE 46 54 25 29 1021.6 1021.2 0.0
09/10:30am 24.6 19.5 19.0 71 3.6 SE 44 50 24 27 1021.7 1021.3 0.0
09/10:00am 24.2 18.8 18.4 70 3.7 SE 44 52 24 28 1021.8 1021.4 0.0
09/09:30am 24.2 19.7 18.2 69 3.8 SE 39 46 21 25 1021.9 1021.5 0.0
09/09:00am 23.3 17.2 17.7 71 3.5 SE 46 52 25 28 1021.7 1021.3 15.6
09/08:30am 24.3 20.0 18.7 71 3.6 SE 39 46 21 25 1021.5 1021.1 15.6
09/08:00am 23.4 18.1 18.1 72 3.3 SE 43 46 23 25 1021.2 1020.8 15.6
09/07:30am 23.0 19.5 18.7 77 2.7 SE 35 44 19 24 1020.8 1020.4 15.6
09/07:00am 22.2 18.8 18.2 78 2.5 SE 33 39 18 21 1020.6 1020.2 15.6
09/06:30am 20.4 14.5 18.0 86 1.5 SSE 46 56 25 30 1020.3 1019.9 15.6
09/06:00am 20.2 16.4 18.1 88 1.3 SE 35 48 19 26 1020.0 1019.6 15.6
09/05:55am 19.9 14.7 18.4 91 0.9 SE 43 52 23 28 1019.8 1019.4 15.4
09/05:41am 21.4 16.6 19.7 90 1.1 SE 44 65 24 35 1019.1 1018.7 15.0
09/05:38am 21.8 18.1 19.9 89 1.2 SE 39 59 21 32 1019.3 1018.9 15.0
09/05:30am 21.2 15.9 18.6 85 1.6 SSE 44 54 24 29 1019.2 1018.8 15.0
09/05:25am 21.2 16.0 18.9 87 1.5 SE 44 54 24 29 1019.1 1018.7 15.0
09/05:00am 21.6 17.3 18.6 83 1.9 ESE 39 54 21 29 1019.2 1018.8 14.6
09/04:30am 22.8 19.1 18.3 76 2.8 SE 35 39 19 21 1019.0 1018.6 14.4
09/04:00am 21.3 16.3 17.1 77 2.6 SE 39 50 21 27 1018.8 1018.4 14.4
09/03:30am 23.2 19.5 18.3 74 3.1 SE 35 43 19 23 1018.5 1018.1 14.4
09/03:00am 23.1 19.8 18.4 75 3.0 SE 33 41 18 22 1018.4 1018.0 14.4
09/02:30am 23.1 19.3 17.3 70 3.6 SE 33 41 18 22 1018.5 1018.1 14.4
09/02:00am 23.0 19.2 18.1 74 3.1 SE 35 43 19 23 1018.5 1018.1 14.4
09/01:30am 23.0 19.2 18.1 74 3.1 ESE 35 43 19 23 1018.7 1018.3 14.4
09/01:00am 23.0 18.9 18.3 75 3.0 ESE 37 43 20 23 1018.8 1018.4 14.4
09/12:30am 23.0 18.7 18.7 77 2.7 SE 39 44 21 24 1018.8 1018.4 14.4
09/12:00am 22.5 18.3 18.9 80 2.3 SE 39 50 21 27 1019.0 1018.6 14.4
 
Date/Time
EST
Temp
°C
App
Temp
°C
Dew
Point
°C
Rel
Hum
%
Delta-T
°C
Wind Press
QNH
hPa
Press
MSL
hPa
Rain since
9am
mm
Dir  Spd
km/h
Gust
km/h
Spd
kts
Gust
kts
08/11:37pm 19.8 14.7 16.8 83 1.8 ESE 39 57 21 31 1019.5 1019.1 14.4
08/11:30pm 21.1 15.6 18.9 87 1.4 ESE 46 57 25 31 1019.3 1018.9 13.6
08/11:24pm 21.8 17.7 18.2 80 2.3 ESE 37 57 20 31 1019.2 1018.8 13.4
08/11:00pm 23.5 19.4 17.3 68 3.8 ESE 35 41 19 22 1019.3 1018.9 13.4
08/10:30pm 23.5 20.0 17.5 69 3.7 ESE 32 39 17 21 1019.3 1018.9 13.4
08/10:00pm 23.3 18.2 16.8 67 4.0 ESE 39 48 21 26 1019.3 1018.9 13.4
08/09:30pm 23.2 19.0 17.2 69 3.7 ESE 35 43 19 23 1019.3 1018.9 13.4
08/09:00pm 22.2 19.5 16.7 71 3.4 SE 26 35 14 19 1019.5 1019.1 13.4
08/08:30pm 21.6 15.5 17.6 78 2.5 SE 46 57 25 31 1019.1 1018.7 13.4
08/08:00pm 21.6 16.0 18.8 84 1.8 SE 46 54 25 29 1018.8 1018.4 13.4
08/07:42pm 22.0 16.4 18.8 82 2.0 SE 46 61 25 33 1018.4 1018.0 13.4
08/07:30pm 22.6 18.7 17.9 75 2.9 SE 35 44 19 24 1018.6 1018.2 13.4
08/07:00pm 22.2 17.6 18.0 77 2.6 SE 39 48 21 26 1018.2 1017.8 13.4
08/06:30pm 21.6 15.5 18.4 82 2.0 SE 48 56 26 30 1017.9 1017.5 13.4
08/06:00pm 21.1 16.5 19.6 91 1.0 ESE 43 50 23 27 1017.7 1017.3 13.4
08/05:30pm 21.7 17.7 19.3 86 1.5 SE 39 44 21 24 1017.2 1016.8 13.4
08/05:00pm 21.6 18.2 19.9 90 1.1 SE 37 44 20 24 1016.9 1016.5 13.4
08/04:30pm 20.8 19.2 20.8 100 0.0 ESE 30 43 16 23 1016.6 1016.2 13.4
08/04:28pm 20.7 19.4 20.7 100 0.0 ESE 28 41 15 22 1016.5 1016.1 13.4
08/04:00pm 19.6 18.1 19.4 99 0.1 SSE 26 39 14 21 1016.4 1016.0 8.2
08/03:30pm 19.6 17.3 19.4 99 0.1 S 30 37 16 20 1016.4 1016.0 6.4
08/03:00pm 20.3 18.0 20.1 99 0.1 S 32 44 17 24 1016.2 1015.8 6.0
08/02:30pm 20.3 17.0 20.1 99 0.1 S 37 48 20 26 1016.3 1015.9 5.8
08/02:00pm 20.5 18.7 20.3 99 0.1 S 30 44 16 24 1016.3 1015.9 5.2
08/01:30pm 20.4 14.8 17.4 83 1.8 SSE 43 50 23 27 1016.3 1015.9 2.6
08/01:00pm 21.3 16.9 20.5 95 0.5 SSE 44 50 24 27 1016.5 1016.1 2.6
08/12:35pm 20.9 20.3 20.4 97 0.3 S 24 46 13 25 1016.7 1016.3 2.6
08/12:30pm 20.9 20.9 20.1 95 0.5 SSW 20 32 11 17 1017.0 1016.6 2.6
08/12:00pm 23.0 20.8 20.3 85 1.8 SSW 32 44 17 24 1017.1 1016.7 0.0
08/11:30am 22.7 19.0 19.9 84 1.8 S 39 50 21 27 1017.5 1017.1 0.0
08/11:00am 22.4 19.4 19.8 85 1.7 S 35 46 19 25 1017.8 1017.4 0.0
08/10:30am 21.7 18.1 20.2 91 1.0 S 39 46 21 25 1017.7 1017.3 0.0
08/10:00am 21.3 18.3 19.9 92 0.9 S 35 46 19 25 1017.5 1017.1 0.0
08/09:30am 21.9 18.5 19.8 88 1.3 S 37 48 20 26 1017.5 1017.1 0.0
08/09:00am 21.6 18.9 19.7 89 1.2 S 33 44 18 24 1017.5 1017.1 1.8
08/08:30am 20.9 18.6 20.6 98 0.2 S 33 48 18 26 1017.4 1017.0 1.8
08/08:00am 20.4 16.8 20.2 99 0.1 S 39 50 21 27 1017.1 1016.7 1.8
08/07:30am 20.0 17.5 19.8 99 0.1 SSW 32 39 17 21 1016.7 1016.3 1.8
08/07:00am 20.1 17.5 19.9 99 0.1 SSW 33 41 18 22 1016.3 1015.9 1.8
08/06:30am 19.7 16.9 19.5 99 0.1 SSW 33 39 18 21 1016.0 1015.6 1.8
08/06:00am 19.3 16.3 19.1 99 0.1 SSW 33 41 18 22 1015.9 1015.5 1.8
08/05:30am 19.8 15.9 19.6 99 0.1 S 39 50 21 27 1015.6 1015.2 1.8
08/05:00am 20.1 16.4 19.9 99 0.1 S 39 56 21 30 1015.1 1014.7 1.8
08/04:30am 20.2 17.9 20.2 100 0.0 S 32 43 17 23 1015.0 1014.6 1.6
08/04:00am 20.2 17.6 20.0 99 0.1 S 33 48 18 26 1014.8 1014.4 1.4
08/03:30am 20.0 15.5 19.8 99 0.1 SSE 43 54 23 29 1014.7 1014.3 1.4
08/03:00am 20.5 16.2 20.3 99 0.1 S 43 57 23 31 1014.6 1014.2 0.8
08/02:42am 20.3 17.8 20.1 99 0.1 SSW 33 52 18 28 1014.5 1014.1 0.8
08/02:30am 20.4 17.6 20.2 99 0.1 SSW 35 48 19 26 1014.9 1014.5 0.6
08/02:00am 21.0 19.5 20.2 95 0.5 S 28 41 15 22 1015.3 1014.9 0.0
08/01:50am 21.1 18.5 19.9 93 0.8 S 33 48 18 26 1015.4 1015.0 0.0
08/01:30am 21.5 17.8 20.0 91 1.0 SSE 39 48 21 26 1015.4 1015.0 0.0
08/01:00am 21.3 17.7 19.4 89 1.2 S 37 52 20 28 1015.5 1015.1 0.0
08/12:30am 22.6 19.0 19.4 82 2.0 SSE 37 46 20 25 1015.7 1015.3 0.0
08/12:00am 22.9 18.2 19.5 81 2.2 SSE 43 52 23 28 1015.6 1015.2 0.0
 
Date/Time
EST
Temp
°C
App
Temp
°C
Dew
Point
°C
Rel
Hum
%
Delta-T
°C
Wind Press
QNH
hPa
Press
MSL
hPa
Rain since
9am
mm
Dir  Spd
km/h
Gust
km/h
Spd
kts
Gust
kts
07/11:30pm 23.1 19.1 19.3 79 2.4 SSE 39 46 21 25 1016.0 1015.6 0.0
07/11:00pm 22.8 18.7 18.3 76 2.8 SSE 37 43 20 23 1016.3 1015.9 0.0
07/10:30pm 22.9 17.9 18.9 78 2.5 SSE 43 48 23 26 1016.3 1015.9 0.0
07/10:00pm 22.9 17.9 18.9 78 2.5 SSE 43 50 23 27 1016.6 1016.2 0.0
07/09:30pm 23.0 17.7 18.1 74 3.1 SSE 43 48 23 26 1016.6 1016.2 0.0
07/09:00pm 23.2 18.0 18.7 76 2.9 SSE 44 52 24 28 1016.5 1016.1 0.0
07/08:30pm 23.2 17.8 17.9 72 3.3 SSE 43 48 23 26 1016.4 1016.0 0.0
07/08:00pm 23.2 18.1 18.5 75 3.0 SSE 43 48 23 26 1016.2 1015.8 0.0
07/07:30pm 23.4 18.3 18.5 74 3.1 SSE 43 50 23 27 1015.9 1015.5 0.0
07/07:00pm 23.2 18.5 17.7 71 3.4 SSE 39 46 21 25 1015.6 1015.2 0.0
07/06:30pm 23.0 17.7 17.2 70 3.6 SSE 41 50 22 27 1015.2 1014.8 0.0
07/06:00pm 22.9 17.5 17.1 70 3.6 SSE 41 44 22 24 1015.1 1014.7 0.0
07/05:30pm 23.2 18.7 18.3 74 3.1 SSE 39 46 21 25 1014.9 1014.5 0.0
07/05:00pm 23.2 18.1 17.7 71 3.4 SSE 41 48 22 26 1014.7 1014.3 0.0
07/04:30pm 23.4 17.9 17.6 70 3.6 SSE 43 48 23 26 1014.6 1014.2 0.0
07/04:00pm 23.5 18.5 17.9 71 3.5 SSE 41 50 22 27 1014.4 1014.0 0.0
07/03:30pm 23.7 18.2 17.7 69 3.8 SSE 43 48 23 26 1014.5 1014.1 0.0
07/03:00pm 23.8 18.2 17.5 68 3.9 SSE 43 52 23 28 1014.4 1014.0 0.0
07/02:30pm 23.6 17.8 17.3 67 3.9 SSE 44 52 24 28 1014.6 1014.2 0.0
07/02:00pm 25.0 20.8 18.0 65 4.4 SE 37 44 20 24 1014.9 1014.5 0.0
07/01:30pm 24.8 19.4 17.0 62 4.8 SSE 41 48 22 26 1015.0 1014.6 0.0
07/01:00pm 24.9 19.1 16.9 61 5.0 SSE 43 50 23 27 1015.3 1014.9 0.0
07/12:30pm 25.0 19.3 17.2 62 4.9 SSE 43 50 23 27 1015.7 1015.3 0.0
07/12:00pm 24.2 18.3 17.2 65 4.3 SSE 44 54 24 29 1016.2 1015.8 0.0
07/11:30am 25.3 19.2 16.7 59 5.3 SSE 44 50 24 27 1016.5 1016.1 0.0
07/11:00am 25.0 18.5 16.7 60 5.1 SSE 46 54 25 29 1016.8 1016.4 0.0
07/10:30am 24.9 18.2 16.1 58 5.4 SSE 46 54 25 29 1016.7 1016.3 0.0
07/10:00am 24.8 17.6 16.8 61 4.9 SE 50 57 27 31 1016.8 1016.4 0.0
07/09:30am 25.1 18.1 16.3 58 5.4 SE 48 56 26 30 1016.7 1016.3 0.0
07/09:00am 24.3 17.9 16.8 63 4.6 SSE 46 54 25 29 1016.7 1016.3 0.0
07/08:30am 24.5 18.2 17.0 63 4.7 SSE 46 54 25 29 1016.4 1016.0 0.0
07/08:00am 24.2 18.4 17.0 64 4.5 SE 43 50 23 27 1016.2 1015.8 0.0
07/07:30am 24.0 18.4 17.5 67 4.1 SE 43 48 23 26 1015.8 1015.4 0.0
07/07:00am 23.6 18.0 16.6 65 4.3 SE 41 46 22 25 1015.5 1015.1 0.0
07/06:30am 23.4 17.5 16.7 66 4.1 SE 43 48 23 26 1015.3 1014.9 0.0
07/06:00am 23.0 18.5 16.5 67 4.0 SE 35 41 19 22 1015.2 1014.8 0.0
07/05:30am 23.0 19.2 16.8 68 3.8 SE 32 37 17 20 1015.0 1014.6 0.0
07/05:00am 23.0 18.7 16.8 68 3.8 SE 35 41 19 22 1014.8 1014.4 0.0
07/04:30am 23.0 17.6 16.1 65 4.2 SE 39 44 21 24 1014.5 1014.1 0.0
07/04:00am 23.0 17.7 16.3 66 4.1 SE 39 44 21 24 1014.5 1014.1 0.0
07/03:30am 23.0 18.0 16.1 65 4.2 SE 37 48 20 26 1014.2 1013.7 0.0
07/03:00am 23.1 18.2 16.4 66 4.1 SE 37 43 20 23 1014.4 1014.0 0.0
07/02:30am 23.1 18.6 16.4 66 4.1 SE 35 41 19 22 1014.5 1014.1 0.0
07/02:00am 23.2 18.6 16.0 64 4.4 SE 35 43 19 23 1014.7 1014.3 0.0
07/01:30am 23.1 18.6 16.4 66 4.1 SE 35 41 19 22 1015.0 1014.6 0.0
07/01:00am 23.1 18.5 16.2 65 4.2 SE 35 43 19 23 1015.3 1014.9 0.0
07/12:30am 23.1 18.4 15.9 64 4.4 SE 35 43 19 23 1015.4 1015.0 0.0
07/12:00am 23.0 19.0 16.1 65 4.2 SE 32 43 17 23 1015.7 1015.3 0.0
 
Date/Time
EST
Temp
°C
App
Temp
°C
Dew
Point
°C
Rel
Hum
%
Delta-T
°C
Wind Press
QNH
hPa
Press
MSL
hPa
Rain since
9am
mm
Dir  Spd
km/h
Gust
km/h
Spd
kts
Gust
kts
06/11:30pm 23.2 19.3 16.5 66 4.1 SE 32 41 17 22 1015.8 1015.4 0.0
06/11:00pm 23.1 18.6 16.4 66 4.1 ESE 35 46 19 25 1015.9 1015.5 0.0
06/10:30pm 23.2 18.9 16.0 64 4.4 ESE 33 39 18 21 1016.1 1015.7 0.0
06/10:00pm 23.2 18.9 16.0 64 4.4 SE 33 43 18 23 1016.2 1015.8 0.0
06/09:30pm 23.2 18.7 16.3 65 4.2 ESE 35 43 19 23 1016.2 1015.8 0.0
06/09:00pm 23.3 19.1 17.1 68 3.8 ESE 35 41 19 22 1016.2 1015.8 0.0
06/08:30pm 23.2 19.2 16.7 67 4.0 SE 33 41 18 22 1016.0 1015.6 0.0
06/08:00pm 23.1 18.7 16.6 67 4.0 ESE 35 41 19 22 1015.9 1015.5 0.0
06/07:30pm 23.1 18.7 16.6 67 4.0 ESE 35 43 19 23 1015.6 1015.2 0.0
06/07:00pm 23.2 19.4 17.2 69 3.7 ESE 33 39 18 21 1015.2 1014.8 0.0
06/06:30pm 23.2 19.2 16.7 67 4.0 SE 33 41 18 22 1014.9 1014.5 0.0
06/06:00pm 23.3 19.1 17.1 68 3.8 SE 35 41 19 22 1014.7 1014.3 0.0

Other formats

Comma delimited format used in spreadsheet applications
http://www.bom.gov.au/fwo/IDQ60801/IDQ60801.94584.axf

JavaScript Object Notation format (JSON) in row-major order
http://www.bom.gov.au/fwo/IDQ60801/IDQ60801.94584.json

Data quality

Most of these data are generated automatically and are frequently updated. Quality checks on data are not normally performed. It is possible for incorrect values to appear. Refer to information at About Latest Weather Observations and please check the disclaimer before using these data.